Time;durP1;ratioP1;P1;durP2;ratioP2;P2;SDS_P1;SDS_P2;PMS_P1;PMS_P2;Temp;Humidity;BMP_temperature;BMP_pressure;BME280_temperature;BME280_humidity;BME280_pressure;Samples;Min_cycle;Max_cycle;Signal;HPM_P1;HPM_P2
2022/01/03 00:01:44;;;;;;;7.22;1.25;;;7.70;99.90;;;;;;5046434;28;20103;-54
2022/01/03 00:04:11;;;;;;;5.93;0.95;;;7.70;99.90;;;;;;5045190;28;20045;-56
2022/01/03 00:06:41;;;;;;;8.10;1.50;;;7.80;99.90;;;;;;5057772;28;20446;-55
2022/01/03 00:09:08;;;;;;;9.40;1.33;;;7.70;99.90;;;;;;5030843;28;20128;-56
2022/01/03 00:11:35;;;;;;;6.47;1.42;;;7.80;99.90;;;;;;5034582;28;20055;-53
2022/01/03 00:14:01;;;;;;;;;;;7.80;99.90;;;;;;5048398;28;20041;-53
2022/01/03 00:16:30;;;;;;;10.63;1.42;;;7.90;99.90;;;;;;5050781;28;19916;-54
2022/01/03 00:18:56;;;;;;;10.48;1.80;;;7.90;99.90;;;;;;5030974;28;20092;-54
2022/01/03 00:21:29;;;;;;;9.23;2.08;;;7.90;99.90;;;;;;5030338;28;20060;-54
2022/01/03 00:24:09;;;;;;;8.27;1.52;;;8.00;99.90;;;;;;5041059;28;20083;-54
2022/01/03 00:26:37;;;;;;;13.73;1.83;;;8.00;99.90;;;;;;5068885;28;20045;-53
2022/01/03 00:29:19;;;;;;;9.07;2.00;;;8.10;99.90;;;;;;5029447;28;20375;-55
2022/01/03 00:31:45;;;;;;;12.15;2.17;;;8.10;99.90;;;;;;5030243;28;20053;-52
2022/01/03 00:34:13;;;;;;;9.07;2.07;;;8.10;99.90;;;;;;5045972;28;20654;-55
2022/01/03 00:36:40;;;;;;;14.48;2.20;;;8.10;99.90;;;;;;5042702;28;20710;-52
2022/01/03 00:39:18;;;;;;;13.70;2.80;;;8.20;99.90;;;;;;5061328;28;20037;-55
2022/01/03 00:41:48;;;;;;;11.55;2.05;;;8.20;99.90;;;;;;5079937;28;20578;-55
2022/01/03 00:44:14;;;;;;;12.65;2.03;;;8.30;99.90;;;;;;5028063;28;20208;-52
2022/01/03 00:47:00;;;;;;;9.15;2.60;;;8.30;99.90;;;;;;5048335;28;20041;-54
2022/01/03 00:49:26;;;;;;;12.35;2.30;;;8.30;99.90;;;;;;5044811;28;20048;-56
2022/01/03 00:51:52;;;;;;;12.13;2.60;;;8.30;99.90;;;;;;5062039;28;20052;-53
2022/01/03 00:54:19;;;;;;;19.30;2.78;;;8.30;99.90;;;;;;5048338;28;20052;-56
2022/01/03 00:56:47;;;;;;;16.83;2.80;;;8.40;99.90;;;;;;5049892;28;20037;-53
2022/01/03 00:59:30;;;;;;;14.15;2.53;;;8.40;99.90;;;;;;5043345;28;20041;-55
2022/01/03 01:02:01;;;;;;;14.85;2.22;;;8.40;99.90;;;;;;5046538;28;20143;-55
2022/01/03 01:04:28;;;;;;;12.13;2.28;;;8.40;99.90;;;;;;5054465;28;20493;-56
2022/01/03 01:06:57;;;;;;;16.70;2.90;;;8.40;99.90;;;;;;5049776;28;20040;-55
2022/01/03 01:09:24;;;;;;;13.80;2.53;;;8.40;99.90;;;;;;5084469;28;20333;-51
2022/01/03 01:11:56;;;;;;;17.05;2.40;;;8.50;99.90;;;;;;5048276;28;20257;-54
2022/01/03 01:14:23;;;;;;;13.90;2.30;;;8.40;99.90;;;;;;5048346;28;20434;-54
2022/01/03 01:16:49;;;;;;;;;;;8.40;99.90;;;;;;5050872;28;20147;-54
2022/01/03 01:19:18;;;;;;;18.50;2.75;;;8.40;99.90;;;;;;5015702;28;19917;-54
2022/01/03 01:21:48;;;;;;;20.35;2.83;;;8.40;99.90;;;;;;5045244;28;20040;-53
2022/01/03 01:24:16;;;;;;;21.23;3.40;;;8.40;99.90;;;;;;5057422;28;20045;-55
2022/01/03 01:29:27;;;;;;;14.13;2.20;;;8.40;99.90;;;;;;5046207;28;20044;-55
2022/01/03 01:32:01;;;;;;;20.55;3.17;;;8.40;99.90;;;;;;5033857;28;20053;-51
2022/01/03 01:34:29;;;;;;;11.95;2.65;;;8.40;99.90;;;;;;5065769;28;20049;-54
2022/01/03 01:36:57;;;;;;;23.67;3.10;;;8.50;99.90;;;;;;5050553;28;20072;-54
2022/01/03 01:39:25;;;;;;;21.63;3.15;;;8.50;99.90;;;;;;5050428;28;20041;-55
2022/01/03 01:41:56;;;;;;;18.45;2.40;;;8.40;99.90;;;;;;5047576;28;20042;-51
2022/01/03 01:44:23;;;;;;;19.80;2.97;;;8.40;99.90;;;;;;5033770;28;20044;-52
2022/01/03 01:46:55;;;;;;;21.17;2.80;;;8.50;99.90;;;;;;5048550;28;20048;-49
2022/01/03 01:49:25;;;;;;;15.48;3.03;;;8.50;99.90;;;;;;5079308;28;20052;-51
2022/01/03 01:52:01;;;;;;;15.38;2.05;;;8.40;99.90;;;;;;5047111;28;20131;-55
2022/01/03 01:54:36;;;;;;;22.38;2.75;;;8.50;99.90;;;;;;5049341;28;20041;-53
2022/01/03 01:57:13;;;;;;;20.67;2.53;;;8.40;99.90;;;;;;5050141;28;20084;-55
2022/01/03 02:00:07;;;;;;;18.17;3.42;;;8.40;99.90;;;;;;5074497;28;20048;-53
2022/01/03 02:02:44;;;;;;;20.52;2.90;;;8.40;99.90;;;;;;5051640;28;20072;-55
2022/01/03 02:05:20;;;;;;;20.25;3.10;;;8.40;99.90;;;;;;5049027;28;20480;-53
2022/01/03 02:08:04;;;;;;;17.80;3.00;;;8.40;99.90;;;;;;5082846;28;20448;-54
2022/01/03 02:10:38;;;;;;;20.92;2.78;;;8.40;99.90;;;;;;5059409;28;20053;-55
2022/01/03 02:13:05;;;;;;;16.30;3.38;;;8.40;99.90;;;;;;5051572;28;20072;-55
2022/01/03 02:15:32;;;;;;;16.17;2.58;;;8.50;99.90;;;;;;5056913;28;20125;-51
2022/01/03 02:17:58;;;;;;;20.73;3.47;;;8.50;99.90;;;;;;5053296;28;20073;-54
2022/01/03 02:20:26;;;;;;;18.77;3.08;;;8.50;99.90;;;;;;5032137;28;20582;-54
2022/01/03 02:22:54;;;;;;;19.48;2.53;;;8.60;99.90;;;;;;5041414;28;20044;-54
2022/01/03 02:25:23;;;;;;;19.98;2.80;;;8.60;99.90;;;;;;5048836;28;20045;-54
2022/01/03 02:27:51;;;;;;;21.48;2.90;;;8.60;99.90;;;;;;5061256;28;20064;-55
2022/01/03 02:30:26;;;;;;;19.08;3.25;;;8.60;99.90;;;;;;5048944;28;20045;-54
2022/01/03 02:32:54;;;;;;;16.65;2.90;;;8.60;99.90;;;;;;5046499;28;20049;-49
2022/01/03 02:35:20;;;;;;;24.17;3.38;;;8.60;99.90;;;;;;5048151;28;20075;-50
2022/01/03 02:37:48;;;;;;;20.10;3.27;;;8.70;99.90;;;;;;5044181;28;20136;-53
2022/01/03 02:40:14;;;;;;;18.15;2.75;;;8.70;99.90;;;;;;5054114;28;20029;-53
2022/01/03 02:42:42;;;;;;;26.23;3.67;;;8.70;99.90;;;;;;5049380;28;20087;-55
2022/01/03 02:45:15;;;;;;;;;;;8.70;99.90;;;;;;5046873;28;20523;-55
2022/01/03 02:47:45;;;;;;;19.73;3.50;;;8.70;99.90;;;;;;5081928;28;20365;-54
2022/01/03 02:50:12;;;;;;;23.08;3.50;;;8.70;99.90;;;;;;5078265;28;20560;-51
2022/01/03 02:52:38;;;;;;;25.40;3.35;;;8.70;99.90;;;;;;5052558;28;20513;-50
2022/01/03 02:55:06;;;;;;;19.60;3.08;;;8.70;99.90;;;;;;5050884;28;20369;-55
2022/01/03 02:57:45;;;;;;;20.70;2.92;;;8.70;99.90;;;;;;5052558;28;20051;-52
2022/01/03 03:00:18;;;;;;;22.42;3.53;;;8.60;99.90;;;;;;5043911;28;20160;-53
2022/01/03 03:02:46;;;;;;;25.27;3.90;;;8.60;99.90;;;;;;5046799;28;20364;-51
2022/01/03 03:05:13;;;;;;;19.20;3.83;;;8.60;99.90;;;;;;5048197;28;20047;-50
2022/01/03 03:07:42;;;;;;;22.77;3.67;;;8.60;99.90;;;;;;5039572;28;20194;-55
2022/01/03 03:10:11;;;;;;;27.77;3.55;;;8.60;99.90;;;;;;5046484;28;20052;-55
2022/01/03 03:12:37;;;;;;;22.33;3.67;;;8.60;99.90;;;;;;5046518;28;20083;-56
2022/01/03 03:15:05;;;;;;;19.88;3.88;;;8.60;99.90;;;;;;5047800;28;20419;-53
2022/01/03 03:17:32;;;;;;;23.88;3.83;;;8.60;99.90;;;;;;5047318;28;20045;-51
2022/01/03 03:20:12;;;;;;;30.85;4.68;;;8.60;99.90;;;;;;5052012;28;20585;-51
2022/01/03 03:22:39;;;;;;;27.02;3.88;;;8.60;99.90;;;;;;5046035;28;20055;-51
2022/01/03 03:25:14;;;;;;;20.40;3.60;;;8.50;99.90;;;;;;5049424;28;20122;-50
2022/01/03 03:27:44;;;;;;;22.80;4.10;;;8.50;99.90;;;;;;5043327;28;20113;-52
2022/01/03 03:30:21;;;;;;;17.67;3.58;;;8.40;99.90;;;;;;5047661;28;20479;-52
2022/01/03 03:32:50;;;;;;;29.65;4.32;;;8.40;99.90;;;;;;5076885;28;20041;-53
2022/01/03 03:35:16;;;;;;;31.20;4.80;;;8.30;99.90;;;;;;5046930;28;20102;-51
2022/01/03 03:37:42;;;;;;;23.40;2.55;;;8.30;99.90;;;;;;5047954;28;20489;-53
2022/01/03 03:40:09;;;;;;;24.13;3.78;;;8.30;99.90;;;;;;5042196;28;20037;-50
2022/01/03 03:42:35;;;;;;;17.13;2.83;;;8.30;99.90;;;;;;5041399;28;20137;-50
2022/01/03 03:45:03;;;;;;;18.17;3.30;;;8.20;99.90;;;;;;5040861;28;20295;-52
2022/01/03 03:47:29;;;;;;;21.95;3.53;;;8.20;99.90;;;;;;5047434;28;20033;-54
2022/01/03 03:49:57;;;;;;;23.38;3.47;;;8.20;99.90;;;;;;5045436;28;20045;-53
2022/01/03 03:52:23;;;;;;;14.60;3.10;;;8.10;99.90;;;;;;5048088;28;20046;-53
2022/01/03 03:54:50;;;;;;;30.05;4.43;;;8.10;99.90;;;;;;5045738;28;20037;-51
2022/01/03 03:57:15;;;;;;;28.73;3.45;;;8.10;99.90;;;;;;5052095;28;20045;-50
2022/01/03 03:59:42;;;;;;;19.95;3.08;;;8.10;99.90;;;;;;5043274;28;20057;-52
2022/01/03 04:02:09;;;;;;;21.42;3.47;;;8.00;99.90;;;;;;5042503;28;20060;-52
2022/01/03 04:04:35;;;;;;;21.27;3.85;;;8.00;99.90;;;;;;5013450;28;20059;-49
2022/01/03 04:07:01;;;;;;;19.85;3.58;;;8.10;99.90;;;;;;5046967;28;20045;-54
2022/01/03 04:09:27;;;;;;;17.67;3.10;;;8.10;99.90;;;;;;5048404;28;20055;-53
2022/01/03 04:11:53;;;;;;;30.23;4.18;;;8.10;99.90;;;;;;5043775;28;20510;-51
2022/01/03 04:14:20;;;;;;;19.30;4.40;;;8.00;99.90;;;;;;5046936;28;20045;-52
2022/01/03 04:16:48;;;;;;;25.55;3.78;;;8.00;99.90;;;;;;5044604;28;20045;-54
2022/01/03 04:19:14;;;;;;;23.95;3.83;;;8.00;99.90;;;;;;5030311;28;20048;-53
2022/01/03 04:21:40;;;;;;;20.98;2.90;;;8.00;99.90;;;;;;5043889;28;20048;-52
2022/01/03 04:24:09;;;;;;;19.00;3.30;;;8.00;99.90;;;;;;5047125;28;20060;-53
2022/01/03 04:26:36;;;;;;;24.17;3.83;;;8.00;99.90;;;;;;5044850;28;20135;-52
2022/01/03 04:29:02;;;;;;;;;;;8.00;99.90;;;;;;5047426;28;20083;-49
2022/01/03 04:31:29;;;;;;;23.30;4.22;;;8.00;99.90;;;;;;5029451;28;19916;-51
2022/01/03 04:33:56;;;;;;;26.25;3.85;;;8.00;99.90;;;;;;5044872;28;20112;-54
2022/01/03 04:36:21;;;;;;;19.25;3.30;;;8.00;99.90;;;;;;5047828;28;20049;-55
2022/01/03 04:38:47;;;;;;;23.38;3.90;;;8.00;99.90;;;;;;5041298;28;20053;-53
2022/01/03 04:41:15;;;;;;;22.23;3.80;;;8.10;99.90;;;;;;5051464;28;20558;-52
2022/01/03 04:43:41;;;;;;;18.27;3.15;;;8.10;99.90;;;;;;5047815;28;20044;-52
2022/01/03 04:46:08;;;;;;;18.83;3.50;;;8.10;99.90;;;;;;5042458;28;20041;-51
2022/01/03 04:48:37;;;;;;;27.00;3.42;;;8.10;99.90;;;;;;5081690;28;20048;-52
2022/01/03 04:51:04;;;;;;;17.13;2.88;;;8.10;99.90;;;;;;5060114;28;20041;-54
2022/01/03 04:53:31;;;;;;;22.92;2.92;;;8.10;99.90;;;;;;5044349;28;20052;-54
2022/01/03 04:55:56;;;;;;;19.77;3.42;;;8.10;99.90;;;;;;5045234;28;20042;-56
2022/01/03 04:58:23;;;;;;;26.65;4.43;;;8.10;99.90;;;;;;5044958;28;20123;-51
2022/01/03 05:00:49;;;;;;;26.90;4.32;;;8.10;99.90;;;;;;5044321;28;20041;-52
2022/01/03 05:03:16;;;;;;;22.65;3.70;;;8.10;99.90;;;;;;5049657;28;20040;-52
2022/01/03 05:05:42;;;;;;;25.63;3.58;;;8.10;99.90;;;;;;5050192;28;20051;-52
2022/01/03 05:08:08;;;;;;;31.02;3.90;;;8.10;99.90;;;;;;5033022;28;20049;-54
2022/01/03 05:10:34;;;;;;;21.90;4.15;;;8.10;99.90;;;;;;5047187;28;20147;-52
2022/01/03 05:13:01;;;;;;;22.85;3.60;;;8.10;99.90;;;;;;5050001;28;20194;-54
2022/01/03 05:15:26;;;;;;;26.25;3.75;;;8.10;99.90;;;;;;5047310;28;20471;-54
2022/01/03 05:17:53;;;;;;;25.75;3.65;;;8.10;99.90;;;;;;5043576;28;20049;-52
2022/01/03 05:20:19;;;;;;;25.05;4.30;;;8.10;99.90;;;;;;5048068;28;20095;-51
2022/01/03 05:22:45;;;;;;;23.05;3.47;;;8.10;99.90;;;;;;5049053;28;20037;-56
2022/01/03 05:25:11;;;;;;;24.40;3.88;;;8.10;99.90;;;;;;5051197;28;20464;-53
2022/01/03 05:27:37;;;;;;;24.83;3.70;;;8.10;99.90;;;;;;5047485;28;20049;-54
2022/01/03 05:30:04;;;;;;;32.25;4.35;;;8.10;99.90;;;;;;5048887;28;20116;-54
2022/01/03 05:32:30;;;;;;;20.38;3.72;;;8.10;99.90;;;;;;5066691;28;20176;-54
2022/01/03 05:35:00;;;;;;;30.83;5.38;;;8.10;99.90;;;;;;5050931;28;20117;-53
2022/01/03 05:37:26;;;;;;;26.88;4.10;;;8.10;99.90;;;;;;5079930;28;20101;-53
2022/01/03 05:39:52;;;;;;;29.90;4.57;;;8.10;99.90;;;;;;5049027;28;20037;-53
2022/01/03 05:42:19;;;;;;;26.52;3.80;;;8.10;99.90;;;;;;5046542;28;20633;-50
2022/01/03 05:44:45;;;;;;;27.98;3.85;;;8.10;99.90;;;;;;5032602;28;20105;-54
2022/01/03 05:47:12;;;;;;;26.00;4.38;;;8.10;99.90;;;;;;5045293;28;20119;-53
2022/01/03 05:49:39;;;;;;;29.73;4.03;;;8.10;99.90;;;;;;5054157;28;20605;-53
2022/01/03 05:52:05;;;;;;;32.78;4.75;;;8.00;99.90;;;;;;5046713;28;20118;-52
2022/01/03 05:54:32;;;;;;;24.75;4.43;;;8.00;99.90;;;;;;5049214;28;20045;-53
2022/01/03 05:56:58;;;;;;;26.30;4.03;;;8.00;99.90;;;;;;5028459;28;20097;-54
2022/01/03 05:59:24;;;;;;;29.95;4.25;;;8.00;99.90;;;;;;5045669;28;20132;-54
2022/01/03 06:01:51;;;;;;;32.95;4.57;;;8.00;99.90;;;;;;5058222;28;20468;-55
2022/01/03 06:04:21;;;;;;;29.13;4.68;;;7.90;99.90;;;;;;5060861;28;20505;-54
2022/01/03 06:06:58;;;;;;;33.60;3.90;;;8.00;99.90;;;;;;5082951;28;20049;-54
2022/01/03 06:09:24;;;;;;;26.38;4.38;;;8.00;99.90;;;;;;5036634;28;20041;-54
2022/01/03 06:11:54;;;;;;;33.53;4.50;;;8.00;99.90;;;;;;5033602;28;20187;-54
2022/01/03 06:14:21;;;;;;;30.70;4.40;;;8.00;99.90;;;;;;5066594;28;20066;-52
2022/01/03 06:16:49;;;;;;;25.27;4.00;;;8.00;99.90;;;;;;5049086;28;20047;-54
2022/01/03 06:19:15;;;;;;;;;;;8.00;99.90;;;;;;5062227;28;20040;-55
2022/01/03 06:21:42;;;;;;;27.08;3.90;;;8.00;99.90;;;;;;5050640;28;19928;-54
2022/01/03 06:24:09;;;;;;;22.55;4.03;;;8.10;99.90;;;;;;5048647;28;20040;-51
2022/01/03 06:26:36;;;;;;;38.17;4.70;;;8.10;99.90;;;;;;5048369;28;20079;-54
2022/01/03 06:29:04;;;;;;;25.17;4.78;;;8.10;99.90;;;;;;5046339;28;20043;-51
2022/01/03 06:31:31;;;;;;;22.30;3.90;;;8.10;99.90;;;;;;5048796;28;20513;-55
2022/01/03 06:33:57;;;;;;;28.00;4.35;;;8.00;99.90;;;;;;5077380;28;20072;-52
2022/01/03 06:36:23;;;;;;;22.35;4.28;;;8.00;99.90;;;;;;5045371;28;20060;-56
2022/01/03 06:38:49;;;;;;;26.52;4.00;;;8.00;99.90;;;;;;5048619;28;20044;-54
2022/01/03 06:41:15;;;;;;;25.27;3.85;;;8.00;99.90;;;;;;5057413;28;20053;-52
2022/01/03 06:43:42;;;;;;;29.20;4.03;;;8.10;99.90;;;;;;5045082;28;20053;-55
2022/01/03 06:46:08;;;;;;;21.48;4.03;;;8.10;99.90;;;;;;5044354;28;20064;-55
2022/01/03 06:48:34;;;;;;;22.75;3.67;;;8.10;99.90;;;;;;5030648;28;20463;-55
2022/01/03 06:51:00;;;;;;;21.67;4.05;;;8.10;99.90;;;;;;5046625;28;20190;-54
2022/01/03 06:53:26;;;;;;;30.42;4.70;;;8.10;99.90;;;;;;5047663;28;20065;-52
2022/01/03 06:55:52;;;;;;;35.47;4.35;;;8.10;99.90;;;;;;5028453;28;20074;-51
2022/01/03 06:58:18;;;;;;;33.25;4.60;;;8.20;99.90;;;;;;5081352;28;20029;-55
2022/01/03 07:00:44;;;;;;;19.45;3.63;;;8.20;99.90;;;;;;5044365;28;20048;-51
2022/01/03 07:03:16;;;;;;;25.02;4.22;;;8.10;99.90;;;;;;5050708;28;20041;-51
2022/01/03 07:05:42;;;;;;;26.80;3.67;;;8.10;99.90;;;;;;5030722;28;20120;-54
2022/01/03 07:08:08;;;;;;;24.60;3.78;;;8.10;99.90;;;;;;5045820;28;20127;-55
2022/01/03 07:10:34;;;;;;;28.55;4.53;;;8.10;99.90;;;;;;5047940;28;20052;-52
2022/01/03 07:13:01;;;;;;;21.42;4.30;;;8.00;99.90;;;;;;5042791;28;20068;-51
2022/01/03 07:20:57;;;;;;;27.52;4.40;;;7.90;99.90;;;;;;5029967;28;20052;-54
2022/01/03 07:23:23;;;;;;;30.45;4.68;;;8.00;99.90;;;;;;5045071;28;20037;-52
2022/01/03 07:25:50;;;;;;;27.55;4.38;;;8.00;99.90;;;;;;5019815;28;20084;-55
2022/01/03 07:28:17;;;;;;;27.58;4.43;;;7.90;99.90;;;;;;5047944;28;20132;-53
2022/01/03 07:30:44;;;;;;;31.83;5.47;;;8.00;99.90;;;;;;5020145;28;20439;-51
2022/01/03 07:33:10;;;;;;;27.67;4.20;;;8.00;99.90;;;;;;5046436;28;20396;-54
2022/01/03 07:35:36;;;;;;;26.17;3.78;;;8.00;99.90;;;;;;5043195;28;20052;-54
2022/01/03 07:38:04;;;;;;;25.95;4.22;;;8.00;99.90;;;;;;5054615;28;20037;-53
2022/01/03 07:40:31;;;;;;;32.65;4.35;;;8.00;99.90;;;;;;5047738;28;20507;-51
2022/01/03 07:42:57;;;;;;;24.70;4.40;;;8.00;99.90;;;;;;5088320;28;20044;-53
2022/01/03 07:45:24;;;;;;;30.67;3.97;;;8.10;99.90;;;;;;5041255;28;20037;-55
2022/01/03 07:47:50;;;;;;;24.33;4.47;;;8.10;99.90;;;;;;5030684;28;20298;-52
2022/01/03 07:50:16;;;;;;;27.48;4.68;;;8.10;99.90;;;;;;5041231;28;20079;-52
2022/01/03 07:52:43;;;;;;;29.85;4.50;;;8.20;99.90;;;;;;5046145;28;20206;-53
2022/01/03 07:55:10;;;;;;;30.88;4.47;;;8.20;99.90;;;;;;5047112;28;20098;-55
2022/01/03 07:57:36;;;;;;;23.23;4.78;;;8.20;99.90;;;;;;5051536;28;20049;-50
2022/01/03 08:00:05;;;;;;;31.10;4.38;;;8.20;99.90;;;;;;5046464;28;20045;-51
2022/01/03 08:02:31;;;;;;;29.05;4.13;;;8.20;99.90;;;;;;5057897;28;20045;-51
2022/01/03 08:04:57;;;;;;;22.60;4.03;;;8.20;99.90;;;;;;5047655;28;20033;-54
2022/01/03 08:07:23;;;;;;;25.23;4.47;;;8.30;99.90;;;;;;5033636;28;20049;-56
2022/01/03 08:09:49;;;;;;;25.00;4.15;;;8.30;99.90;;;;;;5052305;28;20052;-54
2022/01/03 08:12:16;;;;;;;33.88;4.57;;;8.30;99.90;;;;;;5047752;28;20052;-54
2022/01/03 08:14:45;;;;;;;22.25;4.10;;;8.30;99.90;;;;;;5041315;28;20541;-53
2022/01/03 08:17:11;;;;;;;27.02;4.07;;;8.30;99.90;;;;;;5044796;28;20101;-53
2022/01/03 08:19:37;;;;;;;26.73;4.40;;;8.30;99.90;;;;;;5050626;28;20072;-55
2022/01/03 08:22:03;;;;;;;33.65;4.38;;;8.30;99.90;;;;;;5080498;28;20068;-52
2022/01/03 08:24:30;;;;;;;35.67;4.97;;;8.30;99.90;;;;;;5044434;28;20045;-52
2022/01/03 08:26:56;;;;;;;26.10;4.57;;;8.40;99.90;;;;;;5047320;28;20059;-54
2022/01/03 08:29:23;;;;;;;31.33;4.03;;;8.40;99.90;;;;;;5014948;28;20498;-55
2022/01/03 08:31:49;;;;;;;29.05;4.43;;;8.40;99.90;;;;;;5083613;28;20041;-53
2022/01/03 08:34:16;;;;;;;28.83;4.38;;;8.40;99.90;;;;;;5055474;28;20459;-50
2022/01/03 08:36:47;;;;;;;24.02;4.05;;;8.40;99.90;;;;;;5050813;28;20412;-53
2022/01/03 08:39:13;;;;;;;26.92;4.63;;;8.40;99.90;;;;;;5047787;28;20479;-54
2022/01/03 08:41:40;;;;;;;24.00;4.18;;;8.50;99.90;;;;;;5050481;28;20044;-53
2022/01/03 08:44:07;;;;;;;25.63;4.30;;;8.60;99.90;;;;;;5025945;28;20592;-52
2022/01/03 08:46:32;;;;;;;29.40;3.78;;;8.60;99.90;;;;;;5032121;28;20047;-54
2022/01/03 08:49:02;;;;;;;33.63;4.72;;;8.60;99.90;;;;;;5010788;28;20037;-53
2022/01/03 08:51:28;;;;;;;23.35;4.28;;;8.60;99.90;;;;;;5049363;28;20619;-52
2022/01/03 08:53:54;;;;;;;25.60;4.57;;;8.70;99.90;;;;;;5043564;28;20053;-54
2022/01/03 08:56:21;;;;;;;26.60;4.25;;;8.70;99.90;;;;;;5039547;28;20048;-50
2022/01/03 08:58:47;;;;;;;23.10;4.20;;;8.70;99.90;;;;;;5028081;28;20151;-52
2022/01/03 09:01:14;;;;;;;29.42;3.67;;;8.70;99.90;;;;;;5045062;28;20304;-54
2022/01/03 09:03:40;;;;;;;27.00;5.40;;;8.70;99.90;;;;;;5060523;28;20048;-56
2022/01/03 09:06:09;;;;;;;27.55;4.80;;;8.80;99.90;;;;;;5068716;28;20155;-52
2022/01/03 09:08:35;;;;;;;27.08;3.60;;;8.80;99.90;;;;;;5050302;28;20048;-53
2022/01/03 09:11:01;;;;;;;21.38;3.58;;;8.80;99.90;;;;;;5044078;28;20380;-54
2022/01/03 09:13:26;;;;;;;29.45;4.10;;;8.80;99.90;;;;;;5032087;28;20087;-52
2022/01/03 09:15:52;;;;;;;33.33;4.90;;;8.80;99.90;;;;;;5051896;28;20037;-54
2022/01/03 09:18:26;;;;;;;22.63;3.40;;;8.80;99.90;;;;;;5032293;28;20122;-54
2022/01/03 09:20:53;;;;;;;22.83;3.40;;;8.80;99.90;;;;;;5046118;28;20580;-53
2022/01/03 09:23:25;;;;;;;19.05;3.47;;;8.90;99.90;;;;;;5050483;28;20056;-54
2022/01/03 09:28:49;;;;;;;22.67;3.35;;;8.90;99.90;;;;;;5047423;28;20194;-53
2022/01/03 09:31:17;;;;;;;22.90;4.15;;;9.00;99.90;;;;;;5043134;28;20084;-51
2022/01/03 09:33:43;;;;;;;25.75;3.33;;;8.90;99.90;;;;;;5075642;28;20628;-57
2022/01/03 09:36:09;;;;;;;25.30;3.85;;;9.00;99.90;;;;;;5047453;28;20025;-51
2022/01/03 09:38:36;;;;;;;23.33;3.83;;;9.00;99.90;;;;;;5049970;28;20033;-54
2022/01/03 09:41:05;;;;;;;29.63;4.55;;;9.00;99.90;;;;;;5050439;28;20033;-54
2022/01/03 09:43:46;;;;;;;22.23;4.05;;;9.10;99.90;;;;;;5032918;28;20143;-55
2022/01/03 09:46:13;;;;;;;26.95;4.95;;;9.10;99.90;;;;;;5047349;28;20041;-53
2022/01/03 09:48:42;;;;;;;;;;;9.10;99.90;;;;;;5046112;28;20065;-53
2022/01/03 09:51:11;;;;;;;27.17;4.20;;;9.10;99.90;;;;;;5047966;28;20328;-52
2022/01/03 09:53:40;;;;;;;32.15;4.20;;;9.20;99.90;;;;;;5044774;28;20129;-52
2022/01/03 09:56:06;;;;;;;25.23;4.15;;;9.20;99.90;;;;;;5056504;28;20479;-50
2022/01/03 09:58:32;;;;;;;24.17;3.70;;;9.20;99.90;;;;;;5048694;28;20487;-55
2022/01/03 10:01:01;;;;;;;24.30;4.20;;;9.30;99.90;;;;;;5042837;28;20094;-52
2022/01/03 10:03:27;;;;;;;26.75;4.32;;;9.30;99.90;;;;;;5047162;28;20053;-58
2022/01/03 10:06:00;;;;;;;19.52;3.75;;;9.30;99.90;;;;;;5042758;28;20041;-50
2022/01/03 10:08:27;;;;;;;32.95;4.15;;;9.30;99.90;;;;;;5029055;28;20534;-54
2022/01/03 10:10:54;;;;;;;26.08;4.10;;;9.40;99.90;;;;;;5061268;28;20083;-51
2022/01/03 10:13:20;;;;;;;27.90;4.38;;;9.40;99.90;;;;;;5069899;28;20519;-51
2022/01/03 10:15:48;;;;;;;27.52;4.80;;;9.40;99.90;;;;;;5043973;28;20048;-53
2022/01/03 10:18:21;;;;;;;27.08;4.57;;;9.40;99.90;;;;;;5046137;28;20041;-51
2022/01/03 10:20:48;;;;;;;30.23;4.22;;;9.40;99.90;;;;;;5043678;28;20057;-51
2022/01/03 10:23:16;;;;;;;20.98;3.28;;;9.40;99.90;;;;;;5045445;28;20044;-53
2022/01/03 10:25:46;;;;;;;22.42;3.95;;;9.50;99.90;;;;;;5064985;28;20076;-55
2022/01/03 10:28:22;;;;;;;27.05;3.33;;;9.50;99.90;;;;;;5052028;28;20104;-52
2022/01/03 10:30:49;;;;;;;32.60;4.50;;;9.50;99.90;;;;;;5045746;28;20773;-53
2022/01/03 10:33:19;;;;;;;26.63;4.53;;;9.60;99.90;;;;;;5040255;28;20048;-55
2022/01/03 10:35:56;;;;;;;20.08;3.85;;;9.70;99.90;;;;;;5044668;28;20036;-50
2022/01/03 10:38:33;;;;;;;25.67;3.83;;;9.60;99.90;;;;;;5057238;28;20041;-54
2022/01/03 10:41:15;;;;;;;18.00;3.25;;;9.60;99.90;;;;;;5042380;28;20271;-52
2022/01/03 10:43:46;;;;;;;27.23;4.40;;;9.50;99.90;;;;;;5038807;28;20041;-50
2022/01/03 10:46:29;;;;;;;27.23;4.78;;;9.60;99.90;;;;;;5041550;28;20517;-51
2022/01/03 10:49:15;;;;;;;29.92;4.47;;;9.70;99.90;;;;;;5052925;28;20549;-50
2022/01/03 10:51:41;;;;;;;23.05;3.50;;;9.70;99.90;;;;;;5075766;28;20044;-50
2022/01/03 10:54:16;;;;;;;22.88;3.72;;;9.80;99.90;;;;;;5046073;28;20084;-51
2022/01/03 10:56:48;;;;;;;28.60;3.28;;;9.80;99.90;;;;;;5039869;28;20037;-50
2022/01/03 10:59:14;;;;;;;24.55;3.88;;;9.80;99.90;;;;;;5073199;28;20048;-54
2022/01/03 11:01:42;;;;;;;26.70;4.82;;;9.80;99.90;;;;;;5035445;28;20045;-51
2022/01/03 11:04:11;;;;;;;21.48;3.97;;;9.80;99.90;;;;;;5044807;28;20442;-50
2022/01/03 11:11:55;;;;;;;19.88;3.78;;;9.80;99.90;;;;;;5044769;28;20037;-51
2022/01/03 11:14:34;;;;;;;25.63;3.30;;;9.70;99.90;;;;;;5033327;28;20041;-54
2022/01/03 11:17:04;;;;;;;17.52;3.70;;;9.70;99.90;;;;;;5079411;28;20045;-51
2022/01/03 11:19:38;;;;;;;21.23;4.00;;;9.70;99.90;;;;;;5033829;28;20114;-53
2022/01/03 11:22:05;;;;;;;18.45;3.30;;;9.70;99.90;;;;;;5041164;28;20093;-50
2022/01/03 11:24:31;;;;;;;28.20;4.40;;;9.70;99.90;;;;;;5051939;28;20106;-52
2022/01/03 11:26:58;;;;;;;23.75;3.75;;;9.70;99.90;;;;;;5047164;28;20037;-51
2022/01/03 11:29:28;;;;;;;22.88;3.80;;;9.70;99.90;;;;;;5048485;28;20040;-52
2022/01/03 11:31:54;;;;;;;23.05;4.32;;;9.70;99.90;;;;;;5012012;28;20132;-52
2022/01/03 11:34:24;;;;;;;22.30;3.90;;;9.70;99.90;;;;;;5080887;28;20047;-51
2022/01/03 11:36:51;;;;;;;25.38;4.78;;;9.70;99.90;;;;;;5046205;28;20498;-51
2022/01/03 11:39:20;;;;;;;19.10;3.55;;;9.70;99.90;;;;;;5047015;28;20052;-54
2022/01/03 11:41:46;;;;;;;26.70;3.97;;;9.70;99.90;;;;;;5028370;28;20498;-53
2022/01/03 11:44:15;;;;;;;28.70;4.13;;;9.70;99.90;;;;;;5046078;28;20114;-51
2022/01/03 11:46:43;;;;;;;22.42;4.05;;;9.70;99.90;;;;;;5060199;28;20037;-51
2022/01/03 11:49:09;;;;;;;27.60;3.28;;;9.70;99.90;;;;;;5040032;28;20095;-52
2022/01/03 11:51:38;;;;;;;28.60;3.78;;;9.70;99.90;;;;;;5030091;28;20051;-53
2022/01/03 11:54:09;;;;;;;21.15;3.85;;;9.70;99.90;;;;;;5079637;28;20106;-52
2022/01/03 11:56:41;;;;;;;21.23;3.67;;;9.70;99.90;;;;;;5046880;28;20048;-54
2022/01/03 12:04:29;;;;;;;16.38;3.88;;;9.80;99.90;;;;;;5044447;28;20429;-51
2022/01/03 12:07:10;;;;;;;25.48;4.05;;;9.80;99.90;;;;;;5041360;28;20045;-52
2022/01/03 12:09:43;;;;;;;22.13;3.47;;;9.80;99.90;;;;;;5045420;28;20606;-53
2022/01/03 12:12:29;;;;;;;18.08;3.05;;;9.80;99.90;;;;;;5047015;28;20126;-51
2022/01/03 12:14:58;;;;;;;19.30;4.03;;;9.80;99.90;;;;;;5045398;28;20128;-50
2022/01/03 12:17:45;;;;;;;20.60;3.85;;;9.80;99.90;;;;;;5046149;28;20044;-49
2022/01/03 12:20:13;;;;;;;23.17;3.17;;;9.80;99.90;;;;;;5045845;28;21244;-50
2022/01/03 12:22:49;;;;;;;22.45;4.35;;;9.80;99.90;;;;;;5041317;28;20072;-54
2022/01/03 12:25:27;;;;;;;20.77;3.60;;;9.80;99.90;;;;;;5046154;28;20043;-56
2022/01/03 12:27:58;;;;;;;20.70;3.20;;;9.80;99.90;;;;;;5046746;28;20127;-57
2022/01/03 12:30:35;;;;;;;23.15;3.95;;;9.80;99.90;;;;;;5050446;28;20420;-57
2022/01/03 12:33:07;;;;;;;25.92;3.53;;;9.80;99.90;;;;;;5048098;28;20045;-57
2022/01/03 12:35:37;;;;;;;23.20;3.60;;;9.80;99.90;;;;;;5047182;28;20064;-54
2022/01/03 12:38:03;;;;;;;22.38;3.95;;;9.70;99.90;;;;;;5046117;28;20045;-54
2022/01/03 12:40:34;;;;;;;24.40;4.18;;;9.70;99.90;;;;;;5046097;28;20083;-55
2022/01/03 12:43:11;;;;;;;26.52;3.83;;;9.70;99.90;;;;;;5046183;28;20048;-56
2022/01/03 12:45:40;;;;;;;24.05;3.88;;;9.60;99.90;;;;;;5046714;28;20036;-53
2022/01/03 12:48:09;;;;;;;24.38;3.83;;;9.70;99.90;;;;;;5046688;28;20047;-52
2022/01/03 12:50:54;;;;;;;24.55;3.55;;;9.70;99.90;;;;;;5028634;28;20039;-54
2022/01/03 12:53:26;;;;;;;25.02;3.78;;;9.80;99.90;;;;;;5077670;28;20383;-52
2022/01/03 12:56:04;;;;;;;24.70;3.40;;;9.80;99.90;;;;;;5023798;28;20132;-50
2022/01/03 12:58:30;;;;;;;23.85;3.88;;;9.80;99.90;;;;;;5050129;28;20158;-56
2022/01/03 13:01:08;;;;;;;29.20;4.25;;;9.80;99.90;;;;;;5050254;28;20127;-55
2022/01/03 13:03:44;;;;;;;27.38;4.60;;;9.80;99.90;;;;;;5050371;28;20123;-53
2022/01/03 13:06:33;;;;;;;24.90;3.58;;;9.90;99.90;;;;;;5051800;28;20032;-55
2022/01/03 13:09:04;;;;;;;17.80;3.03;;;9.90;99.90;;;;;;5048229;28;20041;-50
2022/01/03 13:11:37;;;;;;;21.38;3.25;;;9.90;99.90;;;;;;5047217;28;20075;-52
2022/01/03 13:14:09;;;;;;;25.83;4.13;;;9.90;99.90;;;;;;5032649;28;20521;-53
2022/01/03 13:16:56;;;;;;;24.48;4.72;;;9.80;99.90;;;;;;5051304;28;20075;-52
2022/01/03 13:19:31;;;;;;;24.10;3.05;;;9.90;99.90;;;;;;5050348;28;20069;-56